sensor_id;sensor_type;location;lat;lon;timestamp;temperature;humidity
6146;DHT22;3104;50.348;7.620;2023-07-02T00:02:23;17.10;1.00
6146;DHT22;3104;50.348;7.620;2023-07-02T00:04:48;17.00;1.00
6146;DHT22;3104;50.348;7.620;2023-07-02T00:07:14;16.90;1.00
6146;DHT22;3104;50.348;7.620;2023-07-02T00:09:40;16.80;98.10
6146;DHT22;3104;50.348;7.620;2023-07-02T00:12:06;16.80;99.90
6146;DHT22;3104;50.348;7.620;2023-07-02T00:14:32;16.70;99.90
6146;DHT22;3104;50.348;7.620;2023-07-02T00:16:58;16.80;99.90
6146;DHT22;3104;50.348;7.620;2023-07-02T00:19:24;16.60;1.00
6146;DHT22;3104;50.348;7.620;2023-07-02T00:21:49;16.70;1.00
6146;DHT22;3104;50.348;7.620;2023-07-02T00:24:15;16.60;1.00
6146;DHT22;3104;50.348;7.620;2023-07-02T00:26:41;16.60;1.00
6146;DHT22;3104;50.348;7.620;2023-07-02T00:29:08;16.60;1.00
6146;DHT22;3104;50.348;7.620;2023-07-02T00:31:35;16.50;1.00
6146;DHT22;3104;50.348;7.620;2023-07-02T00:34:01;16.50;1.00
6146;DHT22;3104;50.348;7.620;2023-07-02T00:36:28;16.40;1.00
6146;DHT22;3104;50.348;7.620;2023-07-02T00:38:53;16.30;1.00
6146;DHT22;3104;50.348;7.620;2023-07-02T00:41:19;16.30;1.00
6146;DHT22;3104;50.348;7.620;2023-07-02T00:43:44;16.50;1.00
6146;DHT22;3104;50.348;7.620;2023-07-02T00:46:20;16.40;1.00
6146;DHT22;3104;50.348;7.620;2023-07-02T00:48:47;16.40;1.00
6146;DHT22;3104;50.348;7.620;2023-07-02T00:51:18;16.40;1.00
6146;DHT22;3104;50.348;7.620;2023-07-02T00:53:48;16.20;1.00
6146;DHT22;3104;50.348;7.620;2023-07-02T00:56:14;16.20;1.00
6146;DHT22;3104;50.348;7.620;2023-07-02T00:58:42;16.00;9.30
6146;DHT22;3104;50.348;7.620;2023-07-02T01:01:24;16.10;40.20
6146;DHT22;3104;50.348;7.620;2023-07-02T01:06:17;16.10;1.00
6146;DHT22;3104;50.348;7.620;2023-07-02T01:08:45;16.10;1.00
6146;DHT22;3104;50.348;7.620;2023-07-02T01:11:11;16.00;1.00
6146;DHT22;3104;50.348;7.620;2023-07-02T01:13:36;15.80;13.80
6146;DHT22;3104;50.348;7.620;2023-07-02T01:16:02;15.70;99.90
6146;DHT22;3104;50.348;7.620;2023-07-02T01:18:28;15.70;99.90
6146;DHT22;3104;50.348;7.620;2023-07-02T01:20:55;15.70;68.60
6146;DHT22;3104;50.348;7.620;2023-07-02T01:23:21;15.90;29.80
6146;DHT22;3104;50.348;7.620;2023-07-02T01:25:47;15.80;1.00
6146;DHT22;3104;50.348;7.620;2023-07-02T01:28:12;15.80;1.00
6146;DHT22;3104;50.348;7.620;2023-07-02T01:30:39;15.80;1.00
6146;DHT22;3104;50.348;7.620;2023-07-02T01:33:04;15.80;1.00
6146;DHT22;3104;50.348;7.620;2023-07-02T01:35:30;15.70;1.00
6146;DHT22;3104;50.348;7.620;2023-07-02T01:37:56;15.80;99.90
6146;DHT22;3104;50.348;7.620;2023-07-02T01:40:22;15.70;99.90
6146;DHT22;3104;50.348;7.620;2023-07-02T01:42:48;15.80;99.90
6146;DHT22;3104;50.348;7.620;2023-07-02T01:45:13;15.90;1.00
6146;DHT22;3104;50.348;7.620;2023-07-02T01:47:39;15.90;1.00
6146;DHT22;3104;50.348;7.620;2023-07-02T01:50:05;15.90;1.00
6146;DHT22;3104;50.348;7.620;2023-07-02T01:52:30;15.90;1.00
6146;DHT22;3104;50.348;7.620;2023-07-02T01:54:59;16.00;41.50
6146;DHT22;3104;50.348;7.620;2023-07-02T01:57:25;15.90;99.90
6146;DHT22;3104;50.348;7.620;2023-07-02T01:59:50;15.90;87.10
6146;DHT22;3104;50.348;7.620;2023-07-02T02:02:16;15.90;56.70
6146;DHT22;3104;50.348;7.620;2023-07-02T02:04:41;15.80;33.80
6146;DHT22;3104;50.348;7.620;2023-07-02T02:07:07;15.90;1.00
6146;DHT22;3104;50.348;7.620;2023-07-02T02:09:32;15.80;1.00
6146;DHT22;3104;50.348;7.620;2023-07-02T02:11:58;15.60;3.80
6146;DHT22;3104;50.348;7.620;2023-07-02T02:14:23;15.60;1.00
6146;DHT22;3104;50.348;7.620;2023-07-02T02:16:49;15.60;1.00
6146;DHT22;3104;50.348;7.620;2023-07-02T02:19:15;15.60;1.00
6146;DHT22;3104;50.348;7.620;2023-07-02T02:21:41;15.60;51.30
6146;DHT22;3104;50.348;7.620;2023-07-02T02:24:07;15.60;99.90
6146;DHT22;3104;50.348;7.620;2023-07-02T02:26:33;15.50;1.00
6146;DHT22;3104;50.348;7.620;2023-07-02T02:28:59;15.40;1.00
6146;DHT22;3104;50.348;7.620;2023-07-02T02:31:24;15.30;1.00
6146;DHT22;3104;50.348;7.620;2023-07-02T02:33:50;15.40;99.90
6146;DHT22;3104;50.348;7.620;2023-07-02T02:36:16;15.40;1.00
6146;DHT22;3104;50.348;7.620;2023-07-02T02:38:42;15.40;99.90
6146;DHT22;3104;50.348;7.620;2023-07-02T02:41:08;15.40;84.90
6146;DHT22;3104;50.348;7.620;2023-07-02T02:43:34;15.30;99.90
6146;DHT22;3104;50.348;7.620;2023-07-02T02:46:00;15.40;99.90
6146;DHT22;3104;50.348;7.620;2023-07-02T02:48:25;15.40;1.00
6146;DHT22;3104;50.348;7.620;2023-07-02T02:50:51;15.30;99.90
6146;DHT22;3104;50.348;7.620;2023-07-02T02:53:16;15.30;1.00
6146;DHT22;3104;50.348;7.620;2023-07-02T02:55:42;15.20;1.00
6146;DHT22;3104;50.348;7.620;2023-07-02T02:58:07;15.20;1.00
6146;DHT22;3104;50.348;7.620;2023-07-02T03:00:33;15.20;1.00
6146;DHT22;3104;50.348;7.620;2023-07-02T03:02:59;15.20;99.90
6146;DHT22;3104;50.348;7.620;2023-07-02T03:05:24;15.30;1.00
6146;DHT22;3104;50.348;7.620;2023-07-02T03:07:50;15.30;17.70
6146;DHT22;3104;50.348;7.620;2023-07-02T03:10:16;15.30;1.00
6146;DHT22;3104;50.348;7.620;2023-07-02T03:12:42;15.30;99.90
6146;DHT22;3104;50.348;7.620;2023-07-02T03:15:07;15.30;1.00
6146;DHT22;3104;50.348;7.620;2023-07-02T03:17:34;15.20;1.00
6146;DHT22;3104;50.348;7.620;2023-07-02T03:20:00;15.30;1.00
6146;DHT22;3104;50.348;7.620;2023-07-02T03:22:25;15.30;99.90
6146;DHT22;3104;50.348;7.620;2023-07-02T03:24:51;15.20;99.90
6146;DHT22;3104;50.348;7.620;2023-07-02T03:27:16;15.20;1.00
6146;DHT22;3104;50.348;7.620;2023-07-02T03:29:42;15.20;99.90
6146;DHT22;3104;50.348;7.620;2023-07-02T03:32:08;15.30;99.90
6146;DHT22;3104;50.348;7.620;2023-07-02T03:34:33;15.30;1.00
6146;DHT22;3104;50.348;7.620;2023-07-02T03:36:59;15.30;4.70
6146;DHT22;3104;50.348;7.620;2023-07-02T03:39:24;15.30;21.00
6146;DHT22;3104;50.348;7.620;2023-07-02T03:41:50;15.30;99.90
6146;DHT22;3104;50.348;7.620;2023-07-02T03:44:16;15.30;1.00
6146;DHT22;3104;50.348;7.620;2023-07-02T03:46:41;15.40;1.00
6146;DHT22;3104;50.348;7.620;2023-07-02T03:49:07;15.40;1.00
6146;DHT22;3104;50.348;7.620;2023-07-02T03:51:32;15.40;1.00
6146;DHT22;3104;50.348;7.620;2023-07-02T03:53:58;15.30;1.00
6146;DHT22;3104;50.348;7.620;2023-07-02T03:56:24;15.20;99.90
6146;DHT22;3104;50.348;7.620;2023-07-02T03:58:50;15.20;1.00
6146;DHT22;3104;50.348;7.620;2023-07-02T04:01:16;15.20;1.00
6146;DHT22;3104;50.348;7.620;2023-07-02T04:03:48;15.20;1.00
6146;DHT22;3104;50.348;7.620;2023-07-02T04:06:14;15.20;99.90
6146;DHT22;3104;50.348;7.620;2023-07-02T04:08:40;15.20;1.00
6146;DHT22;3104;50.348;7.620;2023-07-02T04:11:06;15.10;1.00
6146;DHT22;3104;50.348;7.620;2023-07-02T04:13:32;15.20;1.00
6146;DHT22;3104;50.348;7.620;2023-07-02T04:15:57;15.10;1.00
6146;DHT22;3104;50.348;7.620;2023-07-02T04:18:23;15.10;1.00
6146;DHT22;3104;50.348;7.620;2023-07-02T04:20:48;15.20;1.00
6146;DHT22;3104;50.348;7.620;2023-07-02T04:23:14;15.20;1.00
6146;DHT22;3104;50.348;7.620;2023-07-02T04:25:40;15.30;99.90
6146;DHT22;3104;50.348;7.620;2023-07-02T04:28:05;15.20;99.90
6146;DHT22;3104;50.348;7.620;2023-07-02T04:30:31;15.20;1.00
6146;DHT22;3104;50.348;7.620;2023-07-02T04:32:56;15.20;1.00
6146;DHT22;3104;50.348;7.620;2023-07-02T04:35:22;15.20;1.00
6146;DHT22;3104;50.348;7.620;2023-07-02T04:37:47;15.30;1.00
6146;DHT22;3104;50.348;7.620;2023-07-02T04:40:13;15.40;1.00
6146;DHT22;3104;50.348;7.620;2023-07-02T04:42:41;15.40;1.00
6146;DHT22;3104;50.348;7.620;2023-07-02T04:45:12;15.40;1.00
6146;DHT22;3104;50.348;7.620;2023-07-02T04:47:38;15.70;99.90
6146;DHT22;3104;50.348;7.620;2023-07-02T04:50:04;15.60;1.00
6146;DHT22;3104;50.348;7.620;2023-07-02T04:52:31;15.60;99.90
6146;DHT22;3104;50.348;7.620;2023-07-02T04:54:57;16.00;1.00
6146;DHT22;3104;50.348;7.620;2023-07-02T04:57:22;16.20;1.00
6146;DHT22;3104;50.348;7.620;2023-07-02T04:59:49;16.40;99.90
6146;DHT22;3104;50.348;7.620;2023-07-02T05:02:15;16.10;1.00
6146;DHT22;3104;50.348;7.620;2023-07-02T05:04:41;16.20;1.00
6146;DHT22;3104;50.348;7.620;2023-07-02T05:07:06;16.20;1.00
6146;DHT22;3104;50.348;7.620;2023-07-02T05:09:32;16.20;1.00
6146;DHT22;3104;50.348;7.620;2023-07-02T05:11:58;16.00;1.00
6146;DHT22;3104;50.348;7.620;2023-07-02T05:14:23;16.00;99.90
6146;DHT22;3104;50.348;7.620;2023-07-02T05:16:49;16.00;1.00
6146;DHT22;3104;50.348;7.620;2023-07-02T05:19:15;15.90;1.00
6146;DHT22;3104;50.348;7.620;2023-07-02T05:21:41;16.10;1.00
6146;DHT22;3104;50.348;7.620;2023-07-02T05:24:07;16.10;1.00
6146;DHT22;3104;50.348;7.620;2023-07-02T05:26:33;16.00;99.90
6146;DHT22;3104;50.348;7.620;2023-07-02T05:28:59;16.20;1.00
6146;DHT22;3104;50.348;7.620;2023-07-02T05:31:24;16.40;1.00
6146;DHT22;3104;50.348;7.620;2023-07-02T05:33:50;16.40;99.90
6146;DHT22;3104;50.348;7.620;2023-07-02T05:36:15;16.50;99.90
6146;DHT22;3104;50.348;7.620;2023-07-02T05:38:41;16.30;99.90
6146;DHT22;3104;50.348;7.620;2023-07-02T05:41:06;16.20;99.90
6146;DHT22;3104;50.348;7.620;2023-07-02T05:43:32;16.00;99.90
6146;DHT22;3104;50.348;7.620;2023-07-02T05:45:59;16.10;1.00
6146;DHT22;3104;50.348;7.620;2023-07-02T05:48:27;16.30;1.00
6146;DHT22;3104;50.348;7.620;2023-07-02T05:50:53;16.30;1.00
6146;DHT22;3104;50.348;7.620;2023-07-02T05:53:19;16.40;1.00
6146;DHT22;3104;50.348;7.620;2023-07-02T05:55:45;16.40;1.00
6146;DHT22;3104;50.348;7.620;2023-07-02T05:58:10;16.50;1.00
6146;DHT22;3104;50.348;7.620;2023-07-02T06:00:36;16.50;1.00
6146;DHT22;3104;50.348;7.620;2023-07-02T06:03:02;16.40;1.00
6146;DHT22;3104;50.348;7.620;2023-07-02T06:05:27;16.50;99.90
6146;DHT22;3104;50.348;7.620;2023-07-02T06:07:53;16.70;1.00
6146;DHT22;3104;50.348;7.620;2023-07-02T06:10:19;16.60;1.00
6146;DHT22;3104;50.348;7.620;2023-07-02T06:12:44;16.60;1.00
6146;DHT22;3104;50.348;7.620;2023-07-02T06:15:10;16.60;99.90
6146;DHT22;3104;50.348;7.620;2023-07-02T06:17:36;16.50;1.00
6146;DHT22;3104;50.348;7.620;2023-07-02T06:20:05;16.70;1.00
6146;DHT22;3104;50.348;7.620;2023-07-02T06:22:31;16.60;1.00
6146;DHT22;3104;50.348;7.620;2023-07-02T06:24:57;16.70;1.00
6146;DHT22;3104;50.348;7.620;2023-07-02T06:27:23;16.70;1.00
6146;DHT22;3104;50.348;7.620;2023-07-02T06:29:48;16.60;1.00
6146;DHT22;3104;50.348;7.620;2023-07-02T06:32:15;16.70;1.00
6146;DHT22;3104;50.348;7.620;2023-07-02T06:34:40;16.60;53.40
6146;DHT22;3104;50.348;7.620;2023-07-02T06:37:06;16.70;99.90
6146;DHT22;3104;50.348;7.620;2023-07-02T06:39:31;16.70;99.90
6146;DHT22;3104;50.348;7.620;2023-07-02T06:41:57;16.80;99.90
6146;DHT22;3104;50.348;7.620;2023-07-02T06:44:22;16.90;1.00
6146;DHT22;3104;50.348;7.620;2023-07-02T06:46:48;16.90;1.00
6146;DHT22;3104;50.348;7.620;2023-07-02T06:49:14;17.10;1.00
6146;DHT22;3104;50.348;7.620;2023-07-02T06:51:39;17.30;1.00
6146;DHT22;3104;50.348;7.620;2023-07-02T06:54:05;17.10;99.90
6146;DHT22;3104;50.348;7.620;2023-07-02T06:56:30;16.80;1.00
6146;DHT22;3104;50.348;7.620;2023-07-02T06:58:58;16.90;99.90
6146;DHT22;3104;50.348;7.620;2023-07-02T07:01:23;16.90;98.70
6146;DHT22;3104;50.348;7.620;2023-07-02T07:03:49;17.00;1.00
6146;DHT22;3104;50.348;7.620;2023-07-02T07:06:14;16.70;1.00
6146;DHT22;3104;50.348;7.620;2023-07-02T07:08:40;16.70;1.00
6146;DHT22;3104;50.348;7.620;2023-07-02T07:11:06;16.80;1.00
6146;DHT22;3104;50.348;7.620;2023-07-02T07:13:31;16.80;1.00
6146;DHT22;3104;50.348;7.620;2023-07-02T07:15:57;16.80;1.00
6146;DHT22;3104;50.348;7.620;2023-07-02T07:18:23;16.90;1.00
6146;DHT22;3104;50.348;7.620;2023-07-02T07:20:48;17.00;1.00
6146;DHT22;3104;50.348;7.620;2023-07-02T07:23:15;17.20;1.00
6146;DHT22;3104;50.348;7.620;2023-07-02T07:25:41;17.20;1.00
6146;DHT22;3104;50.348;7.620;2023-07-02T07:28:07;17.30;1.00
6146;DHT22;3104;50.348;7.620;2023-07-02T07:30:32;17.50;1.00
6146;DHT22;3104;50.348;7.620;2023-07-02T07:32:58;17.70;1.00
6146;DHT22;3104;50.348;7.620;2023-07-02T07:35:23;17.70;99.90
6146;DHT22;3104;50.348;7.620;2023-07-02T07:37:49;17.60;1.00
6146;DHT22;3104;50.348;7.620;2023-07-02T07:40:15;17.70;1.00
6146;DHT22;3104;50.348;7.620;2023-07-02T07:42:41;17.70;1.00
6146;DHT22;3104;50.348;7.620;2023-07-02T07:45:10;17.80;43.20
6146;DHT22;3104;50.348;7.620;2023-07-02T07:47:37;17.80;1.00
6146;DHT22;3104;50.348;7.620;2023-07-02T07:50:02;18.20;1.00
6146;DHT22;3104;50.348;7.620;2023-07-02T07:52:28;18.40;20.80
6146;DHT22;3104;50.348;7.620;2023-07-02T07:54:54;18.40;99.90
6146;DHT22;3104;50.348;7.620;2023-07-02T07:57:19;18.70;79.00
6146;DHT22;3104;50.348;7.620;2023-07-02T07:59:45;18.70;1.00
6146;DHT22;3104;50.348;7.620;2023-07-02T08:02:10;19.00;99.90
6146;DHT22;3104;50.348;7.620;2023-07-02T08:04:36;19.20;99.90
6146;DHT22;3104;50.348;7.620;2023-07-02T08:07:01;18.90;1.00
6146;DHT22;3104;50.348;7.620;2023-07-02T08:09:29;18.90;99.90
6146;DHT22;3104;50.348;7.620;2023-07-02T08:11:55;18.60;1.00
6146;DHT22;3104;50.348;7.620;2023-07-02T08:14:20;18.70;99.90
6146;DHT22;3104;50.348;7.620;2023-07-02T08:16:46;18.80;99.90
6146;DHT22;3104;50.348;7.620;2023-07-02T08:19:12;18.80;99.90
6146;DHT22;3104;50.348;7.620;2023-07-02T08:21:37;18.90;99.90
6146;DHT22;3104;50.348;7.620;2023-07-02T08:24:03;18.90;99.90
6146;DHT22;3104;50.348;7.620;2023-07-02T08:26:29;18.80;1.00
6146;DHT22;3104;50.348;7.620;2023-07-02T08:28:55;18.50;99.90
6146;DHT22;3104;50.348;7.620;2023-07-02T08:31:20;18.60;99.90
6146;DHT22;3104;50.348;7.620;2023-07-02T08:33:46;18.60;99.90
6146;DHT22;3104;50.348;7.620;2023-07-02T08:36:12;18.40;1.00
6146;DHT22;3104;50.348;7.620;2023-07-02T08:38:39;18.60;1.00
6146;DHT22;3104;50.348;7.620;2023-07-02T08:41:07;18.80;99.90
6146;DHT22;3104;50.348;7.620;2023-07-02T08:43:33;19.60;99.90
6146;DHT22;3104;50.348;7.620;2023-07-02T08:45:59;20.10;1.00
6146;DHT22;3104;50.348;7.620;2023-07-02T08:48:26;20.40;1.00
6146;DHT22;3104;50.348;7.620;2023-07-02T08:50:51;20.10;1.00
6146;DHT22;3104;50.348;7.620;2023-07-02T08:53:17;20.60;1.00
6146;DHT22;3104;50.348;7.620;2023-07-02T08:55:43;20.70;99.90
6146;DHT22;3104;50.348;7.620;2023-07-02T08:58:08;20.60;99.90
6146;DHT22;3104;50.348;7.620;2023-07-02T09:00:34;20.60;1.00
6146;DHT22;3104;50.348;7.620;2023-07-02T09:03:15;20.50;99.90
6146;DHT22;3104;50.348;7.620;2023-07-02T09:05:53;19.90;1.00
6146;DHT22;3104;50.348;7.620;2023-07-02T09:08:26;19.50;1.00
6146;DHT22;3104;50.348;7.620;2023-07-02T09:10:53;20.40;1.00
6146;DHT22;3104;50.348;7.620;2023-07-02T09:13:19;21.40;99.90
6146;DHT22;3104;50.348;7.620;2023-07-02T09:15:45;21.70;99.90
6146;DHT22;3104;50.348;7.620;2023-07-02T09:18:20;21.10;99.90
6146;DHT22;3104;50.348;7.620;2023-07-02T09:20:46;20.50;1.00
6146;DHT22;3104;50.348;7.620;2023-07-02T09:23:15;20.70;99.90
6146;DHT22;3104;50.348;7.620;2023-07-02T09:25:41;21.40;99.90
6146;DHT22;3104;50.348;7.620;2023-07-02T09:28:21;21.80;1.00
6146;DHT22;3104;50.348;7.620;2023-07-02T09:30:51;21.30;1.00
6146;DHT22;3104;50.348;7.620;2023-07-02T09:33:17;20.50;99.90
6146;DHT22;3104;50.348;7.620;2023-07-02T09:35:43;20.50;99.90
6146;DHT22;3104;50.348;7.620;2023-07-02T09:38:09;20.50;99.90
6146;DHT22;3104;50.348;7.620;2023-07-02T09:40:39;20.30;99.90
6146;DHT22;3104;50.348;7.620;2023-07-02T09:43:10;20.20;99.90
6146;DHT22;3104;50.348;7.620;2023-07-02T09:45:36;20.00;99.90
6146;DHT22;3104;50.348;7.620;2023-07-02T09:48:02;20.30;99.90
6146;DHT22;3104;50.348;7.620;2023-07-02T09:50:29;20.50;99.90
6146;DHT22;3104;50.348;7.620;2023-07-02T09:52:55;20.40;99.90
6146;DHT22;3104;50.348;7.620;2023-07-02T09:55:21;20.20;99.90
6146;DHT22;3104;50.348;7.620;2023-07-02T09:57:47;20.00;99.90
6146;DHT22;3104;50.348;7.620;2023-07-02T10:00:14;19.90;99.90
6146;DHT22;3104;50.348;7.620;2023-07-02T10:02:40;20.00;99.90
6146;DHT22;3104;50.348;7.620;2023-07-02T10:05:05;20.00;99.90
6146;DHT22;3104;50.348;7.620;2023-07-02T10:07:32;20.10;99.90
6146;DHT22;3104;50.348;7.620;2023-07-02T10:09:58;20.00;99.90
6146;DHT22;3104;50.348;7.620;2023-07-02T10:12:26;19.90;99.90
6146;DHT22;3104;50.348;7.620;2023-07-02T10:14:54;19.70;99.90
6146;DHT22;3104;50.348;7.620;2023-07-02T10:17:33;19.60;1.00
6146;DHT22;3104;50.348;7.620;2023-07-02T10:20:06;19.60;1.00
6146;DHT22;3104;50.348;7.620;2023-07-02T10:22:43;19.90;1.00
6146;DHT22;3104;50.348;7.620;2023-07-02T10:25:09;20.00;99.90
6146;DHT22;3104;50.348;7.620;2023-07-02T10:27:39;19.90;1.00
6146;DHT22;3104;50.348;7.620;2023-07-02T10:30:07;20.00;99.90
6146;DHT22;3104;50.348;7.620;2023-07-02T10:32:34;20.10;99.90
6146;DHT22;3104;50.348;7.620;2023-07-02T10:35:01;20.10;99.90
6146;DHT22;3104;50.348;7.620;2023-07-02T10:37:35;20.70;99.90
6146;DHT22;3104;50.348;7.620;2023-07-02T10:40:04;20.70;52.50
6146;DHT22;3104;50.348;7.620;2023-07-02T10:42:30;21.20;46.90
6146;DHT22;3104;50.348;7.620;2023-07-02T10:44:58;21.10;4.30
6146;DHT22;3104;50.348;7.620;2023-07-02T10:47:23;21.90;1.00
6146;DHT22;3104;50.348;7.620;2023-07-02T10:49:50;21.50;1.00
6146;DHT22;3104;50.348;7.620;2023-07-02T10:52:15;22.00;1.00
6146;DHT22;3104;50.348;7.620;2023-07-02T10:54:43;22.00;1.00
6146;DHT22;3104;50.348;7.620;2023-07-02T10:57:18;21.50;1.00
6146;DHT22;3104;50.348;7.620;2023-07-02T10:59:48;21.80;1.00
6146;DHT22;3104;50.348;7.620;2023-07-02T11:02:14;22.30;1.00
6146;DHT22;3104;50.348;7.620;2023-07-02T11:04:40;21.70;1.00
6146;DHT22;3104;50.348;7.620;2023-07-02T11:07:06;21.50;1.00
6146;DHT22;3104;50.348;7.620;2023-07-02T11:09:32;21.50;1.00
6146;DHT22;3104;50.348;7.620;2023-07-02T11:11:59;22.30;1.00
6146;DHT22;3104;50.348;7.620;2023-07-02T11:14:35;22.10;1.00
6146;DHT22;3104;50.348;7.620;2023-07-02T11:17:06;22.30;1.00
6146;DHT22;3104;50.348;7.620;2023-07-02T11:19:32;22.30;1.00
6146;DHT22;3104;50.348;7.620;2023-07-02T11:21:58;22.50;1.00
6146;DHT22;3104;50.348;7.620;2023-07-02T11:24:35;22.90;1.00
6146;DHT22;3104;50.348;7.620;2023-07-02T11:27:05;23.40;1.00
6146;DHT22;3104;50.348;7.620;2023-07-02T11:29:32;23.00;1.00
6146;DHT22;3104;50.348;7.620;2023-07-02T11:32:07;22.40;1.00
6146;DHT22;3104;50.348;7.620;2023-07-02T11:34:35;22.80;1.00
6146;DHT22;3104;50.348;7.620;2023-07-02T11:37:00;22.90;1.00
6146;DHT22;3104;50.348;7.620;2023-07-02T11:39:26;22.00;1.00
6146;DHT22;3104;50.348;7.620;2023-07-02T11:41:52;21.80;1.00
6146;DHT22;3104;50.348;7.620;2023-07-02T11:44:18;21.40;1.00
6146;DHT22;3104;50.348;7.620;2023-07-02T11:46:43;21.40;1.00
6146;DHT22;3104;50.348;7.620;2023-07-02T11:49:09;21.30;1.00
6146;DHT22;3104;50.348;7.620;2023-07-02T11:51:44;21.30;1.00
6146;DHT22;3104;50.348;7.620;2023-07-02T11:54:15;21.00;1.00
6146;DHT22;3104;50.348;7.620;2023-07-02T11:56:41;20.90;1.00
6146;DHT22;3104;50.348;7.620;2023-07-02T11:59:08;20.80;1.00
6146;DHT22;3104;50.348;7.620;2023-07-02T12:01:34;21.00;1.00
6146;DHT22;3104;50.348;7.620;2023-07-02T12:03:59;21.00;1.00
6146;DHT22;3104;50.348;7.620;2023-07-02T12:06:25;21.30;1.00
6146;DHT22;3104;50.348;7.620;2023-07-02T12:08:50;21.40;1.00
6146;DHT22;3104;50.348;7.620;2023-07-02T12:11:16;21.80;1.00
6146;DHT22;3104;50.348;7.620;2023-07-02T12:13:42;22.00;1.00
6146;DHT22;3104;50.348;7.620;2023-07-02T12:16:07;21.70;1.00
6146;DHT22;3104;50.348;7.620;2023-07-02T12:18:33;21.50;1.00
6146;DHT22;3104;50.348;7.620;2023-07-02T12:20:58;21.40;1.00
6146;DHT22;3104;50.348;7.620;2023-07-02T12:23:24;21.30;1.00
6146;DHT22;3104;50.348;7.620;2023-07-02T12:25:49;21.40;1.00
6146;DHT22;3104;50.348;7.620;2023-07-02T12:28:15;21.10;1.00
6146;DHT22;3104;50.348;7.620;2023-07-02T12:30:41;21.10;1.00
6146;DHT22;3104;50.348;7.620;2023-07-02T12:33:06;21.10;1.00
6146;DHT22;3104;50.348;7.620;2023-07-02T12:35:32;21.20;1.00
6146;DHT22;3104;50.348;7.620;2023-07-02T12:37:58;21.50;1.00
6146;DHT22;3104;50.348;7.620;2023-07-02T12:40:23;21.80;1.00
6146;DHT22;3104;50.348;7.620;2023-07-02T12:42:49;21.70;1.00
6146;DHT22;3104;50.348;7.620;2023-07-02T12:45:15;21.90;1.00
6146;DHT22;3104;50.348;7.620;2023-07-02T12:47:42;21.90;1.00
6146;DHT22;3104;50.348;7.620;2023-07-02T12:50:08;22.00;1.00
6146;DHT22;3104;50.348;7.620;2023-07-02T12:52:34;22.70;1.00
6146;DHT22;3104;50.348;7.620;2023-07-02T12:55:00;23.30;1.00
6146;DHT22;3104;50.348;7.620;2023-07-02T12:57:26;22.80;1.00
6146;DHT22;3104;50.348;7.620;2023-07-02T12:59:56;22.50;1.00
6146;DHT22;3104;50.348;7.620;2023-07-02T13:02:22;22.60;1.00
6146;DHT22;3104;50.348;7.620;2023-07-02T13:04:48;22.00;1.00
6146;DHT22;3104;50.348;7.620;2023-07-02T13:07:14;21.60;1.00
6146;DHT22;3104;50.348;7.620;2023-07-02T13:09:40;21.80;1.00
6146;DHT22;3104;50.348;7.620;2023-07-02T13:12:06;21.90;1.00
6146;DHT22;3104;50.348;7.620;2023-07-02T13:14:34;22.00;1.00
6146;DHT22;3104;50.348;7.620;2023-07-02T13:17:00;22.10;1.00
6146;DHT22;3104;50.348;7.620;2023-07-02T13:19:25;22.50;1.00
6146;DHT22;3104;50.348;7.620;2023-07-02T13:21:51;22.40;1.00
6146;DHT22;3104;50.348;7.620;2023-07-02T13:24:17;22.40;1.00
6146;DHT22;3104;50.348;7.620;2023-07-02T13:26:42;22.30;1.00
6146;DHT22;3104;50.348;7.620;2023-07-02T13:29:08;22.00;1.00
6146;DHT22;3104;50.348;7.620;2023-07-02T13:31:33;22.00;1.00
6146;DHT22;3104;50.348;7.620;2023-07-02T13:33:59;21.90;1.00
6146;DHT22;3104;50.348;7.620;2023-07-02T13:36:25;21.60;1.00
6146;DHT22;3104;50.348;7.620;2023-07-02T13:38:50;21.50;1.00
6146;DHT22;3104;50.348;7.620;2023-07-02T13:41:16;21.50;1.00
6146;DHT22;3104;50.348;7.620;2023-07-02T13:43:41;22.30;1.00
6146;DHT22;3104;50.348;7.620;2023-07-02T13:46:07;23.40;1.00
6146;DHT22;3104;50.348;7.620;2023-07-02T13:48:32;23.20;1.00
6146;DHT22;3104;50.348;7.620;2023-07-02T13:51:00;23.10;1.00
6146;DHT22;3104;50.348;7.620;2023-07-02T13:53:25;23.40;1.00
6146;DHT22;3104;50.348;7.620;2023-07-02T13:55:51;23.00;99.90
6146;DHT22;3104;50.348;7.620;2023-07-02T13:58:16;22.50;99.90
6146;DHT22;3104;50.348;7.620;2023-07-02T14:00:42;23.20;99.90
6146;DHT22;3104;50.348;7.620;2023-07-02T14:03:08;23.10;99.90
6146;DHT22;3104;50.348;7.620;2023-07-02T14:05:33;23.10;99.90
6146;DHT22;3104;50.348;7.620;2023-07-02T14:07:59;23.60;99.90
6146;DHT22;3104;50.348;7.620;2023-07-02T14:10:24;23.30;99.90
6146;DHT22;3104;50.348;7.620;2023-07-02T14:12:50;23.20;99.90
6146;DHT22;3104;50.348;7.620;2023-07-02T14:15:16;22.80;99.90
6146;DHT22;3104;50.348;7.620;2023-07-02T14:17:41;23.10;99.90
6146;DHT22;3104;50.348;7.620;2023-07-02T14:20:08;22.80;99.90
6146;DHT22;3104;50.348;7.620;2023-07-02T14:22:33;22.50;99.90
6146;DHT22;3104;50.348;7.620;2023-07-02T14:24:59;22.50;99.90
6146;DHT22;3104;50.348;7.620;2023-07-02T14:27:25;22.60;99.90
6146;DHT22;3104;50.348;7.620;2023-07-02T14:29:50;22.60;1.00
6146;DHT22;3104;50.348;7.620;2023-07-02T14:32:16;22.60;99.90
6146;DHT22;3104;50.348;7.620;2023-07-02T14:34:42;22.40;1.00
6146;DHT22;3104;50.348;7.620;2023-07-02T14:37:08;22.50;1.00
6146;DHT22;3104;50.348;7.620;2023-07-02T14:39:34;22.40;1.00
6146;DHT22;3104;50.348;7.620;2023-07-02T14:41:59;22.50;99.90
6146;DHT22;3104;50.348;7.620;2023-07-02T14:44:25;22.40;99.90
6146;DHT22;3104;50.348;7.620;2023-07-02T14:46:51;22.40;1.00
6146;DHT22;3104;50.348;7.620;2023-07-02T14:49:17;22.20;99.90
6146;DHT22;3104;50.348;7.620;2023-07-02T14:51:42;22.30;99.90
6146;DHT22;3104;50.348;7.620;2023-07-02T14:54:09;22.60;1.00
6146;DHT22;3104;50.348;7.620;2023-07-02T14:56:34;22.90;99.90
6146;DHT22;3104;50.348;7.620;2023-07-02T14:59:04;22.80;99.90
6146;DHT22;3104;50.348;7.620;2023-07-02T15:01:30;23.00;99.90
6146;DHT22;3104;50.348;7.620;2023-07-02T15:03:55;23.00;99.90
6146;DHT22;3104;50.348;7.620;2023-07-02T15:06:21;23.00;99.90
6146;DHT22;3104;50.348;7.620;2023-07-02T15:08:47;23.50;99.90
6146;DHT22;3104;50.348;7.620;2023-07-02T15:11:14;23.80;99.90
6146;DHT22;3104;50.348;7.620;2023-07-02T15:13:41;23.40;99.90
6146;DHT22;3104;50.348;7.620;2023-07-02T15:16:08;23.20;99.90
6146;DHT22;3104;50.348;7.620;2023-07-02T15:18:34;22.90;99.90
6146;DHT22;3104;50.348;7.620;2023-07-02T15:21:00;23.00;99.90
6146;DHT22;3104;50.348;7.620;2023-07-02T15:23:27;22.90;99.90
6146;DHT22;3104;50.348;7.620;2023-07-02T15:25:56;22.90;99.90
6146;DHT22;3104;50.348;7.620;2023-07-02T15:28:23;23.10;99.90
6146;DHT22;3104;50.348;7.620;2023-07-02T15:30:52;22.90;99.90
6146;DHT22;3104;50.348;7.620;2023-07-02T15:33:18;22.60;99.90
6146;DHT22;3104;50.348;7.620;2023-07-02T15:35:44;22.50;99.90
6146;DHT22;3104;50.348;7.620;2023-07-02T15:38:09;22.40;99.90
6146;DHT22;3104;50.348;7.620;2023-07-02T15:40:35;22.40;99.90
6146;DHT22;3104;50.348;7.620;2023-07-02T15:43:00;22.90;99.90
6146;DHT22;3104;50.348;7.620;2023-07-02T15:45:26;23.20;99.90
6146;DHT22;3104;50.348;7.620;2023-07-02T15:47:52;23.20;99.90
6146;DHT22;3104;50.348;7.620;2023-07-02T15:50:17;23.20;99.90
6146;DHT22;3104;50.348;7.620;2023-07-02T15:52:43;23.50;99.90
6146;DHT22;3104;50.348;7.620;2023-07-02T15:55:08;24.00;99.90
6146;DHT22;3104;50.348;7.620;2023-07-02T15:57:34;24.10;99.90
6146;DHT22;3104;50.348;7.620;2023-07-02T16:00:00;24.30;99.90
6146;DHT22;3104;50.348;7.620;2023-07-02T16:02:26;24.00;99.90
6146;DHT22;3104;50.348;7.620;2023-07-02T16:04:52;23.20;99.90
6146;DHT22;3104;50.348;7.620;2023-07-02T16:07:17;22.80;99.90
6146;DHT22;3104;50.348;7.620;2023-07-02T16:09:43;23.00;99.90